Time;durP1;ratioP1;P1;durP2;ratioP2;P2;SDS_P1;SDS_P2;PMS_P1;PMS_P2;Temp;Humidity;BMP_temperature;BMP_pressure;BME280_temperature;BME280_humidity;BME280_pressure;Samples;Min_cycle;Max_cycle;Signal;HPM_P1;HPM_P2
2023/01/21 00:01:43;;;;;;;22.05;14.25;;;;;;;4.75;73.32;94030.34;4174885;28;20065;-61
2023/01/21 00:03:45;;;;;;;19.98;13.93;;;;;;;4.71;72.96;94032.41;4164630;28;20141;-57
2023/01/21 00:05:47;;;;;;;19.05;13.40;;;;;;;4.72;73.39;94044.44;4174937;28;20048;-58
2023/01/21 00:07:49;;;;;;;18.55;14.05;;;;;;;4.59;73.25;94049.09;4178040;28;20398;-58
2023/01/21 00:09:50;;;;;;;18.80;13.40;;;;;;;4.53;73.02;94041.06;4178920;28;20041;-59
2023/01/21 00:11:52;;;;;;;19.80;13.75;;;;;;;4.58;73.61;94039.69;4178171;28;20114;-61
2023/01/21 00:13:54;;;;;;;19.70;13.93;;;;;;;4.63;73.34;94037.47;4174720;28;20082;-59
2023/01/21 00:15:55;;;;;;;21.02;12.55;;;;;;;4.68;73.26;94047.44;4173515;28;20135;-61
2023/01/21 00:17:57;;;;;;;18.42;13.93;;;;;;;4.71;73.00;94050.59;4178578;28;20490;-63
2023/01/21 00:19:59;;;;;;;17.77;12.55;;;;;;;4.70;72.89;94055.91;4178874;28;20396;-59
2023/01/21 00:22:00;;;;;;;18.20;12.57;;;;;;;4.70;72.38;94045.53;4160346;28;20068;-62
2023/01/21 00:24:04;;;;;;;18.35;12.00;;;;;;;4.67;72.76;94033.66;4140036;28;20152;-62
2023/01/21 00:26:07;;;;;;;15.70;12.15;;;;;;;4.65;72.77;94026.97;4144573;28;20099;-63
2023/01/21 00:28:09;;;;;;;17.80;12.13;;;;;;;4.57;72.93;94030.25;4129371;28;20514;-63
2023/01/21 00:30:11;;;;;;;16.63;12.15;;;;;;;4.59;72.95;94045.69;4137847;28;20076;-61
2023/01/21 00:32:13;;;;;;;18.10;12.73;;;;;;;4.58;72.71;94046.63;4144838;28;20053;-63
2023/01/21 00:34:15;;;;;;;19.58;12.95;;;;;;;4.27;72.51;94041.59;4145418;28;20133;-62
2023/01/21 00:36:17;;;;;;;18.52;12.52;;;;;;;4.19;73.05;94042.28;4145058;28;20693;-64
2023/01/21 00:38:19;;;;;;;18.10;13.27;;;;;;;4.29;73.59;94045.69;4145394;28;20088;-65
2023/01/21 00:40:21;;;;;;;20.33;13.35;;;;;;;4.29;73.10;94034.50;4145711;28;20050;-61
2023/01/21 00:42:22;;;;;;;17.77;12.63;;;;;;;4.35;73.57;94038.34;4143319;28;20049;-60
2023/01/21 00:44:24;;;;;;;16.73;12.68;;;;;;;4.40;73.24;94025.78;4145021;28;20486;-61
2023/01/21 00:46:27;;;;;;;19.65;13.68;;;;;;;4.47;73.27;94040.66;4144641;28;20092;-58
2023/01/21 00:48:29;;;;;;;17.73;13.77;;;;;;;4.49;72.84;94041.31;4141576;28;20054;-61
2023/01/21 00:50:30;;;;;;;16.20;12.50;;;;;;;4.39;72.44;94034.50;4144788;28;20310;-59
2023/01/21 00:52:32;;;;;;;17.98;13.05;;;;;;;4.34;72.40;94034.91;4141035;28;20484;-58
2023/01/21 00:54:34;;;;;;;16.90;12.40;;;;;;;4.32;72.89;94029.03;4142460;28;20468;-64
2023/01/21 00:56:35;;;;;;;16.38;12.18;;;;;;;4.36;73.56;94033.00;4145034;28;20050;-64
2023/01/21 00:58:37;;;;;;;16.48;12.02;;;;;;;4.34;73.17;94034.09;4143815;28;20129;-63
2023/01/21 01:00:39;;;;;;;20.52;14.02;;;;;;;4.21;73.02;94031.78;4145282;28;20052;-62
2023/01/21 01:02:41;;;;;;;17.80;12.57;;;;;;;4.27;73.37;94044.19;4145452;28;20049;-61
2023/01/21 01:04:42;;;;;;;20.77;13.55;;;;;;;4.35;73.58;94044.34;4145511;28;20492;-62
2023/01/21 01:06:44;;;;;;;19.15;13.10;;;;;;;4.40;73.43;94047.34;4128019;28;20054;-60
2023/01/21 01:08:48;;;;;;;18.15;14.23;;;;;;;4.47;72.87;94042.41;4128155;28;20093;-58
2023/01/21 01:10:53;;;;;;;19.20;13.38;;;;;;;4.46;72.72;94041.59;4143047;28;20054;-60
2023/01/21 01:12:54;;;;;;;18.40;12.70;;;;;;;4.47;72.90;94043.25;4142990;28;20054;-61
2023/01/21 01:14:56;;;;;;;18.10;13.00;;;;;;;4.50;73.18;94030.00;4138430;28;20057;-57
2023/01/21 01:17:01;;;;;;;19.27;14.63;;;;;;;4.50;72.97;94024.00;4131107;28;20058;-62
2023/01/21 01:19:02;;;;;;;18.77;13.27;;;;;;;4.51;73.16;94041.19;4148249;28;20045;-61
2023/01/21 01:21:05;;;;;;;19.23;13.23;;;;;;;4.47;72.76;94051.03;4145929;28;20092;-61
2023/01/21 01:23:06;;;;;;;18.02;12.65;;;;;;;4.48;72.53;94042.28;4141627;28;20045;-62
2023/01/21 01:25:08;;;;;;;17.17;12.48;;;;;;;4.43;72.93;94026.31;4148317;28;20081;-60
2023/01/21 01:27:10;;;;;;;17.60;12.18;;;;;;;4.35;73.03;94033.97;4148267;28;20532;-60
2023/01/21 01:29:12;;;;;;;15.95;12.00;;;;;;;4.33;73.11;94024.69;4147940;28;20137;-60
2023/01/21 01:31:16;;;;;;;18.40;12.80;;;;;;;4.36;73.99;94019.22;4147299;28;20057;-60
2023/01/21 01:33:21;;;;;;;18.42;13.48;;;;;;;4.40;73.97;94021.41;4135810;28;20468;-60
2023/01/21 01:35:22;;;;;;;17.65;12.75;;;;;;;4.45;72.91;94032.19;4147981;28;20054;-61
2023/01/21 01:37:24;;;;;;;18.17;13.07;;;;;;;4.45;73.30;94029.59;4148437;28;20515;-60
2023/01/21 01:39:26;;;;;;;17.05;12.65;;;;;;;4.47;72.96;94016.47;4147636;28;20057;-60
2023/01/21 01:41:28;;;;;;;18.48;13.75;;;;;;;4.54;73.32;94004.59;4148045;28;20053;-61
2023/01/21 01:43:52;;;;;;;15.35;12.80;;;;;;;4.64;72.95;94001.97;4147445;28;20050;-60
2023/01/21 01:45:54;;;;;;;19.33;12.52;;;;;;;4.60;72.31;94006.63;4145707;28;20756;-59
2023/01/21 01:47:59;;;;;;;17.00;12.13;;;;;;;4.60;72.34;94000.63;4147871;28;20050;-59
2023/01/21 01:50:03;;;;;;;15.40;12.02;;;;;;;4.59;71.72;93989.44;4130726;28;20050;-62
2023/01/21 01:52:06;;;;;;;15.88;11.68;;;;;;;4.24;71.89;93987.44;4130043;28;20085;-60
2023/01/21 01:54:09;;;;;;;16.23;11.77;;;;;;;4.16;73.33;93993.31;4130406;28;20102;-61
2023/01/21 01:56:11;;;;;;;16.67;12.80;;;;;;;4.23;73.16;93983.22;4130768;28;20146;-63
2023/01/21 01:58:15;;;;;;;17.95;12.23;;;;;;;4.29;73.17;93980.06;4139217;28;20081;-64
2023/01/21 02:00:17;;;;;;;;;;;;;;;4.33;73.95;93983.22;4144657;28;20484;-64
2023/01/21 02:02:19;;;;;;;17.50;11.73;;;;;;;4.34;73.44;93972.69;4147253;28;19922;-61
2023/01/21 02:04:24;;;;;;;16.48;12.15;;;;;;;4.38;73.21;93970.63;4147725;28;20057;-63
2023/01/21 02:06:26;;;;;;;16.02;11.18;;;;;;;4.28;72.95;93965.44;4126145;28;20093;-62
2023/01/21 02:08:28;;;;;;;16.17;11.15;;;;;;;4.29;73.19;93973.09;4137059;28;20050;-62
2023/01/21 02:10:30;;;;;;;15.32;11.68;;;;;;;4.29;73.47;93977.47;4130059;28;20113;-62
2023/01/21 02:12:33;;;;;;;14.30;10.85;;;;;;;4.28;73.44;93962.84;4141282;28;20058;-63
2023/01/21 02:14:41;;;;;;;14.63;11.05;;;;;;;4.30;73.07;93974.75;4123407;28;20080;-60
2023/01/21 02:16:58;;;;;;;15.10;10.75;;;;;;;4.42;72.85;93952.06;4130165;28;20520;-62
2023/01/21 02:19:18;;;;;;;17.55;12.00;;;;;;;4.35;72.66;93953.59;4130356;28;20046;-62
2023/01/21 02:21:32;;;;;;;19.95;11.27;;;;;;;4.32;73.16;93959.03;4135589;28;20058;-61
2023/01/21 02:23:45;;;;;;;15.93;11.93;;;;;;;4.19;73.52;93956.72;4140037;28;20081;-61
2023/01/21 02:26:08;;;;;;;16.92;12.00;;;;;;;4.18;73.94;93951.72;4134233;28;20046;-63
2023/01/21 02:28:41;;;;;;;15.40;11.38;;;;;;;4.08;73.27;93939.56;4147303;28;20509;-62
2023/01/21 02:31:07;;;;;;;15.25;10.20;;;;;;;4.07;73.82;93937.94;4133763;28;20197;-62
2023/01/21 02:33:17;;;;;;;17.73;12.05;;;;;;;4.12;73.72;93944.47;4138607;28;20072;-59
2023/01/21 02:35:27;;;;;;;15.30;11.60;;;;;;;4.17;74.04;93921.53;4126472;28;20157;-58
2023/01/21 02:37:50;;;;;;;14.23;10.48;;;;;;;3.96;74.13;93943.28;4146326;28;20084;-58
2023/01/21 02:40:00;;;;;;;14.57;10.50;;;;;;;3.92;74.91;93918.59;4146274;28;20046;-61
2023/01/21 02:42:11;;;;;;;13.30;9.77;;;;;;;3.59;75.23;93936.19;4145404;28;20084;-62
2023/01/21 02:44:31;;;;;;;13.80;10.73;;;;;;;3.62;76.15;93920.34;4129221;28;20051;-59
2023/01/21 02:46:41;;;;;;;14.00;10.85;;;;;;;3.72;75.81;93932.47;4128804;28;20054;-59
2023/01/21 02:48:58;;;;;;;16.58;10.93;;;;;;;3.84;75.33;93937.41;4129654;28;20614;-58
2023/01/21 02:51:01;;;;;;;17.08;11.07;;;;;;;3.98;75.30;93933.59;4136866;28;20050;-59
2023/01/21 02:53:03;;;;;;;13.07;10.07;;;;;;;4.02;74.40;93934.09;4147199;28;20046;-59
2023/01/21 02:55:08;;;;;;;16.83;11.63;;;;;;;3.87;74.45;93920.75;4128658;28;20058;-60
2023/01/21 02:57:16;;;;;;;13.95;10.90;;;;;;;3.83;75.15;93934.94;4127727;28;20121;-60
2023/01/21 02:59:17;;;;;;;15.23;10.90;;;;;;;3.88;75.44;93917.22;4146735;28;20442;-58
2023/01/21 03:01:34;;;;;;;15.07;11.18;;;;;;;3.92;74.71;93921.19;4147181;28;20046;-59
2023/01/21 03:03:58;;;;;;;14.95;10.80;;;;;;;3.94;74.47;93916.66;4146816;28;20065;-59
2023/01/21 03:06:08;;;;;;;13.95;11.23;;;;;;;3.83;74.78;93903.84;4134693;28;20141;-59
2023/01/21 03:08:15;;;;;;;16.35;12.25;;;;;;;3.82;75.01;93908.22;4140132;28;20078;-62
2023/01/21 03:10:23;;;;;;;15.48;11.18;;;;;;;3.90;75.26;93903.16;4128711;28;20046;-59
2023/01/21 03:12:44;;;;;;;15.63;11.23;;;;;;;4.06;74.88;93910.34;4128863;28;20070;-60
2023/01/21 03:17:31;;;;;;;17.20;11.52;;;;;;;3.92;74.71;93900.44;4131403;28;20053;-60
2023/01/21 03:19:35;;;;;;;16.85;11.73;;;;;;;3.88;74.79;93899.09;4129211;28;20480;-61
2023/01/21 03:21:37;;;;;;;15.93;12.10;;;;;;;3.93;74.77;93891.69;4131989;28;20105;-60
2023/01/21 03:23:41;;;;;;;15.70;11.32;;;;;;;3.88;74.90;93905.06;4145400;28;20054;-61
2023/01/21 03:25:43;;;;;;;17.10;12.50;;;;;;;4.02;75.51;93893.47;4129084;28;20085;-60
2023/01/21 03:27:46;;;;;;;15.30;11.02;;;;;;;4.15;74.83;93882.81;4140605;28;20608;-61
2023/01/21 03:29:53;;;;;;;14.88;11.38;;;;;;;4.03;73.75;93879.56;4145756;28;20045;-60
2023/01/21 03:31:57;;;;;;;15.75;11.68;;;;;;;3.85;74.29;93883.78;4134463;28;20053;-63
2023/01/21 03:34:02;;;;;;;16.80;12.43;;;;;;;3.63;75.02;93880.53;4121921;28;20057;-61
2023/01/21 03:36:10;;;;;;;16.70;11.93;;;;;;;3.44;75.88;93877.94;4128609;28;20166;-62
2023/01/21 03:38:26;;;;;;;16.45;12.35;;;;;;;3.34;76.62;93872.78;4126048;28;20077;-60
2023/01/21 03:40:33;;;;;;;15.35;11.15;;;;;;;3.37;76.59;93863.91;4128796;28;20050;-61
2023/01/21 03:42:35;;;;;;;15.15;11.45;;;;;;;3.22;76.57;93869.50;4145650;28;20137;-63
2023/01/21 03:44:37;;;;;;;16.65;12.20;;;;;;;3.27;76.90;93869.13;4126968;28;20050;-61
2023/01/21 03:46:45;;;;;;;15.00;10.93;;;;;;;3.38;77.26;93861.22;4130665;28;20053;-62
2023/01/21 03:48:55;;;;;;;14.57;11.07;;;;;;;3.41;76.81;93850.56;4133726;28;20054;-60
2023/01/21 03:51:05;;;;;;;15.90;11.40;;;;;;;3.49;76.05;93860.25;4143968;28;20085;-62
2023/01/21 03:53:07;;;;;;;16.30;11.60;;;;;;;3.48;75.61;93862.03;4128210;28;20065;-61
2023/01/21 03:55:10;;;;;;;14.60;11.52;;;;;;;3.49;75.93;93860.25;4139795;28;20054;-61
2023/01/21 03:57:11;;;;;;;17.17;11.27;;;;;;;3.36;75.48;93863.13;4139184;28;20042;-60
2023/01/21 03:59:13;;;;;;;14.77;9.75;;;;;;;3.35;75.60;93858.88;4145059;28;20303;-65
2023/01/21 04:01:15;;;;;;;11.60;9.55;;;;;;;3.12;75.84;93853.16;4145174;28;20049;-61
2023/01/21 04:03:17;;;;;;;13.77;9.88;;;;;;;2.97;76.28;93870.84;4142161;28;20045;-60
2023/01/21 04:05:18;;;;;;;13.02;10.05;;;;;;;2.89;76.84;93872.47;4139108;28;20054;-61
2023/01/21 04:07:20;;;;;;;14.13;10.35;;;;;;;3.01;77.45;93869.63;4141120;28;20045;-59
2023/01/21 04:09:22;;;;;;;14.05;10.55;;;;;;;2.84;77.39;93860.72;4145987;28;20056;-60
2023/01/21 04:11:23;;;;;;;13.82;11.32;;;;;;;2.94;77.79;93859.94;4136334;28;20050;-60
2023/01/21 04:13:25;;;;;;;14.32;11.57;;;;;;;3.10;77.51;93867.16;4138471;28;20054;-62
2023/01/21 04:15:27;;;;;;;15.70;11.23;;;;;;;3.22;76.76;93859.13;4135472;28;20081;-61
2023/01/21 04:17:28;;;;;;;15.43;10.95;;;;;;;3.30;76.01;93847.31;4142360;28;20066;-63
2023/01/21 04:19:30;;;;;;;13.45;10.25;;;;;;;3.23;75.78;93837.50;4128140;28;20038;-61
2023/01/21 04:21:32;;;;;;;14.88;10.93;;;;;;;3.06;75.59;93833.00;4145302;28;20111;-60
2023/01/21 04:23:33;;;;;;;14.68;10.50;;;;;;;3.06;76.73;93827.81;4145787;28;20538;-59
2023/01/21 04:25:35;;;;;;;13.38;10.60;;;;;;;3.01;76.46;93829.97;4145936;28;20127;-61
2023/01/21 04:27:37;;;;;;;14.13;10.85;;;;;;;3.00;76.98;93849.06;4139051;28;20416;-61
2023/01/21 04:29:38;;;;;;;15.40;11.13;;;;;;;3.05;76.84;93857.22;4145457;28;20126;-61
2023/01/21 04:31:40;;;;;;;14.73;11.43;;;;;;;3.04;75.96;93843.47;4136661;28;20054;-63
2023/01/21 04:33:41;;;;;;;17.77;11.82;;;;;;;3.05;76.37;93862.38;4142772;28;20420;-60
2023/01/21 04:35:43;;;;;;;14.43;11.30;;;;;;;3.05;76.74;93854.63;4145735;28;20108;-63
2023/01/21 04:37:45;;;;;;;15.25;11.18;;;;;;;3.16;76.94;93853.69;4128329;28;20129;-63
2023/01/21 04:39:46;;;;;;;18.30;12.02;;;;;;;3.19;76.08;93861.19;4145691;28;20417;-63
2023/01/21 04:41:49;;;;;;;13.52;11.40;;;;;;;3.21;76.38;93877.41;4145072;28;20061;-62
2023/01/21 04:43:50;;;;;;;16.35;11.65;;;;;;;3.25;76.09;93882.19;4145240;28;20045;-62
2023/01/21 04:45:52;;;;;;;15.27;11.98;;;;;;;3.30;75.65;93892.13;4144245;28;20137;-62
2023/01/21 04:47:53;;;;;;;17.17;12.80;;;;;;;3.30;75.80;93892.13;4145782;28;20144;-62
2023/01/21 04:49:55;;;;;;;16.55;12.75;;;;;;;3.28;75.89;93891.44;4148514;28;20709;-64
2023/01/21 04:51:57;;;;;;;18.17;13.50;;;;;;;3.30;75.98;93893.91;4135616;28;20054;-64
2023/01/21 04:53:58;;;;;;;17.75;13.48;;;;;;;3.36;75.76;93894.19;4144527;28;20050;-64
2023/01/21 04:56:00;;;;;;;19.80;15.25;;;;;;;3.34;75.47;93897.88;4133011;28;20070;-64
2023/01/21 04:58:01;;;;;;;17.88;13.48;;;;;;;3.00;76.44;93880.09;4143498;28;20408;-63
2023/01/21 05:00:05;;;;;;;19.95;14.20;;;;;;;2.94;76.94;93885.81;4148002;28;20053;-64
2023/01/21 05:02:07;;;;;;;19.15;15.15;;;;;;;2.68;77.51;93896.63;4148653;28;20053;-63
2023/01/21 05:04:09;;;;;;;19.95;14.88;;;;;;;2.37;78.54;93904.41;4139977;28;20529;-63
2023/01/21 05:06:10;;;;;;;18.55;14.32;;;;;;;2.19;79.56;93911.09;4137194;28;20080;-62
2023/01/21 05:08:12;;;;;;;21.48;15.15;;;;;;;1.90;80.57;93906.56;4142756;28;20057;-64
2023/01/21 05:10:15;;;;;;;21.63;15.18;;;;;;;1.81;81.48;93907.34;4148631;28;20049;-62
2023/01/21 05:12:17;;;;;;;22.73;17.50;;;;;;;1.79;82.25;93922.13;4148147;28;20046;-64
2023/01/21 05:14:19;;;;;;;24.30;17.08;;;;;;;1.84;81.83;93930.31;4148311;28;20472;-63
2023/01/21 05:16:21;;;;;;;21.95;16.40;;;;;;;2.12;82.31;93933.22;4148095;28;20482;-63
2023/01/21 05:18:23;;;;;;;21.85;16.75;;;;;;;2.35;81.40;93932.13;4132512;28;20535;-62
2023/01/21 05:20:25;;;;;;;24.52;17.17;;;;;;;2.52;80.17;93927.28;4135547;28;20053;-63
2023/01/21 05:22:26;;;;;;;23.13;17.70;;;;;;;2.55;79.57;93924.47;4140962;28;20101;-64
2023/01/21 05:24:28;;;;;;;24.35;17.23;;;;;;;2.54;78.85;93918.50;4130154;28;20053;-63
2023/01/21 05:26:30;;;;;;;21.58;16.52;;;;;;;2.44;78.85;93910.66;4126616;28;20480;-62
2023/01/21 05:28:31;;;;;;;27.23;17.95;;;;;;;2.46;79.70;93910.56;4125968;28;20065;-61
2023/01/21 05:30:33;;;;;;;23.10;17.00;;;;;;;2.58;79.84;93921.59;4132067;28;20054;-64
2023/01/21 05:32:35;;;;;;;19.23;14.57;;;;;;;2.67;79.28;93936.38;4123180;28;20137;-63
2023/01/21 05:34:37;;;;;;;23.25;16.80;;;;;;;2.56;78.51;93939.88;4129689;28;20061;-62
2023/01/21 05:36:39;;;;;;;21.65;16.38;;;;;;;2.50;79.02;93934.38;4131830;28;20077;-64
2023/01/21 05:38:40;;;;;;;22.77;16.70;;;;;;;2.30;79.44;93934.25;4130332;28;20046;-65
2023/01/21 05:40:42;;;;;;;24.67;18.23;;;;;;;2.22;80.15;93945.25;4131984;28;20109;-64
2023/01/21 05:42:45;;;;;;;24.60;17.55;;;;;;;2.35;80.04;93936.50;4131587;28;20412;-62
2023/01/21 05:44:46;;;;;;;24.58;18.42;;;;;;;2.46;79.90;93944.16;4136457;28;20046;-65
2023/01/21 05:46:48;;;;;;;27.83;19.23;;;;;;;2.62;79.72;93943.69;4140940;28;20108;-62
2023/01/21 05:48:50;;;;;;;26.83;19.25;;;;;;;2.73;79.16;93935.84;4131079;28;20066;-62
2023/01/21 05:50:51;;;;;;;26.75;19.55;;;;;;;2.84;79.01;93948.69;4131620;28;20449;-61
2023/01/21 05:52:53;;;;;;;24.00;18.90;;;;;;;2.99;78.45;93954.31;4137203;28;20623;-61
2023/01/21 05:54:54;;;;;;;27.05;18.13;;;;;;;3.13;77.79;93942.78;4132201;28;20066;-60
2023/01/21 05:57:03;;;;;;;24.73;17.70;;;;;;;3.13;76.65;93931.59;4126750;28;20051;-59
2023/01/21 05:59:04;;;;;;;26.10;19.38;;;;;;;3.11;76.87;93929.16;4129532;28;20073;-60
2023/01/21 06:01:06;;;;;;;26.25;18.88;;;;;;;3.17;76.78;93933.78;4117080;28;20055;-62
2023/01/21 06:03:08;;;;;;;24.77;18.15;;;;;;;3.26;76.93;93922.63;4126837;28;20049;-61
2023/01/21 06:05:10;;;;;;;25.52;18.95;;;;;;;3.38;76.86;93930.31;4115622;28;20062;-63
2023/01/21 06:07:11;;;;;;;26.02;17.98;;;;;;;3.46;76.24;93935.59;4122121;28;20480;-63
2023/01/21 06:09:13;;;;;;;26.80;19.17;;;;;;;3.57;76.30;93932.91;4116035;28;20644;-65
2023/01/21 06:11:14;;;;;;;24.83;18.38;;;;;;;3.59;75.15;93918.06;4125597;28;20141;-61
2023/01/21 06:13:16;;;;;;;24.67;17.33;;;;;;;3.65;75.68;93920.06;4130697;28;20495;-62
2023/01/21 06:15:18;;;;;;;26.25;17.10;;;;;;;3.74;75.01;93933.97;4127702;28;20054;-65
2023/01/21 06:17:20;;;;;;;23.52;16.60;;;;;;;3.80;74.89;93932.63;4131119;28;20125;-65
2023/01/21 06:19:22;;;;;;;24.02;16.45;;;;;;;3.82;75.09;93933.31;4131667;28;20046;-64
2023/01/21 06:21:23;;;;;;;25.65;16.90;;;;;;;3.86;74.65;93926.91;4137105;28;20049;-63
2023/01/21 06:23:26;;;;;;;31.92;20.75;;;;;;;3.93;74.49;93947.91;4146981;28;20132;-63
2023/01/21 06:25:28;;;;;;;41.35;24.73;;;;;;;3.99;74.31;93940.38;4147417;28;20097;-63
2023/01/21 06:27:29;;;;;;;24.35;16.80;;;;;;;3.92;73.63;93944.50;4146688;28;20088;-65
2023/01/21 06:29:31;;;;;;;24.02;15.80;;;;;;;3.74;74.09;93940.94;4147583;28;20061;-62
2023/01/21 06:31:33;;;;;;;25.08;17.23;;;;;;;3.64;74.98;93941.75;4144057;28;20050;-63
2023/01/21 06:33:35;;;;;;;24.90;17.02;;;;;;;3.63;75.34;93944.47;4147349;28;20060;-62
2023/01/21 06:35:36;;;;;;;23.50;17.52;;;;;;;3.67;75.08;93944.06;4129660;28;20463;-62
2023/01/21 06:37:38;;;;;;;23.45;16.48;;;;;;;3.68;74.96;93952.69;4131284;28;20127;-61
2023/01/21 06:39:40;;;;;;;27.00;17.17;;;;;;;3.74;75.41;93961.66;4138125;28;20054;-61
2023/01/21 06:41:41;;;;;;;25.75;17.30;;;;;;;3.66;75.26;93955.41;4146760;28;20053;-62
2023/01/21 06:43:43;;;;;;;27.45;18.40;;;;;;;3.68;74.68;93961.25;4133012;28;20121;-60
2023/01/21 06:45:45;;;;;;;25.08;16.67;;;;;;;3.06;75.83;93957.19;4140070;28;20050;-61
2023/01/21 06:47:47;;;;;;;25.48;17.10;;;;;;;2.36;78.63;93963.97;4131516;28;20139;-62
2023/01/21 06:49:48;;;;;;;31.05;21.65;;;;;;;2.58;79.72;93974.16;4131437;28;20334;-58
2023/01/21 06:51:50;;;;;;;32.15;22.02;;;;;;;2.89;79.33;93973.34;4132233;28;20489;-62
2023/01/21 06:53:52;;;;;;;30.40;21.65;;;;;;;3.12;78.23;93967.03;4142422;28;20476;-62
2023/01/21 06:55:54;;;;;;;31.63;20.38;;;;;;;3.31;77.69;93968.00;4139498;28;20558;-61
2023/01/21 06:57:56;;;;;;;32.33;20.23;;;;;;;3.47;76.86;93982.09;4134769;28;20690;-62
2023/01/21 06:59:57;;;;;;;33.03;21.05;;;;;;;3.59;75.74;93987.97;4132540;28;20551;-61
2023/01/21 07:01:59;;;;;;;30.30;20.20;;;;;;;3.62;75.58;93994.66;4129326;28;20097;-64
2023/01/21 07:04:02;;;;;;;33.00;21.02;;;;;;;3.72;75.10;93990.28;4131819;28;20061;-59
2023/01/21 07:06:04;;;;;;;38.38;22.08;;;;;;;3.78;75.01;93986.34;4138381;28;20069;-61
2023/01/21 07:08:05;;;;;;;33.00;22.02;;;;;;;3.71;74.82;93987.84;4130715;28;20054;-61
2023/01/21 07:10:08;;;;;;;34.97;22.02;;;;;;;3.75;75.19;93974.50;4146094;28;20046;-63
2023/01/21 07:12:09;;;;;;;33.97;21.45;;;;;;;3.77;74.73;93982.13;4145571;28;20077;-61
2023/01/21 07:14:11;;;;;;;37.55;21.90;;;;;;;3.85;75.04;93984.84;4145868;28;20614;-60
2023/01/21 07:16:13;;;;;;;35.38;23.27;;;;;;;4.06;75.17;93979.53;4146514;28;20054;-62
2023/01/21 07:18:15;;;;;;;33.05;21.15;;;;;;;4.22;74.78;93976.41;4147087;28;20469;-63
2023/01/21 07:20:17;;;;;;;33.58;22.13;;;;;;;4.38;73.60;93974.03;4146260;28;20046;-62
2023/01/21 07:22:19;;;;;;;31.02;19.73;;;;;;;4.43;72.94;93982.25;4146284;28;20054;-63
2023/01/21 07:24:21;;;;;;;30.52;20.13;;;;;;;4.57;72.71;93972.38;4146703;28;20050;-59
2023/01/21 07:26:22;;;;;;;36.70;20.20;;;;;;;4.66;72.59;93989.69;4146839;28;20567;-63
2023/01/21 07:28:24;;;;;;;29.20;18.60;;;;;;;4.61;71.48;93979.72;4145655;28;20049;-61
2023/01/21 07:30:26;;;;;;;27.50;17.77;;;;;;;4.30;72.68;93979.09;4146153;28;20104;-63
2023/01/21 07:32:28;;;;;;;30.13;19.45;;;;;;;4.19;73.28;93971.47;4146880;28;20057;-61
2023/01/21 07:34:29;;;;;;;32.05;21.88;;;;;;;4.34;73.52;93972.69;4129592;28;20054;-62
2023/01/21 07:36:31;;;;;;;29.95;19.63;;;;;;;4.56;73.78;93970.72;4146350;28;20054;-62
2023/01/21 07:38:33;;;;;;;28.00;17.98;;;;;;;4.77;73.16;93960.97;4146255;28;20408;-66
2023/01/21 07:40:34;;;;;;;22.63;15.77;;;;;;;4.84;72.31;93956.88;4146144;28;20049;-63
2023/01/21 07:42:36;;;;;;;27.10;17.35;;;;;;;4.82;72.28;93956.19;4145845;28;20046;-62
2023/01/21 07:44:37;;;;;;;30.33;16.98;;;;;;;4.56;72.23;93957.75;4146051;28;20089;-63
2023/01/21 07:46:39;;;;;;;24.48;17.05;;;;;;;4.47;73.25;93962.84;4145204;28;20049;-62
2023/01/21 07:48:41;;;;;;;27.25;16.75;;;;;;;4.56;73.60;93968.97;4146425;28;20053;-62
2023/01/21 07:50:42;;;;;;;20.38;13.30;;;;;;;4.47;72.87;93973.22;4145595;28;20056;-60
2023/01/21 07:52:44;;;;;;;21.08;14.23;;;;;;;4.53;73.53;93971.81;4145282;28;20399;-62
2023/01/21 07:54:46;;;;;;;24.20;15.18;;;;;;;4.69;73.13;93966.88;4144279;28;20521;-66
2023/01/21 07:56:48;;;;;;;25.08;15.52;;;;;;;4.93;72.30;93952.59;4145243;28;20514;-62
2023/01/21 07:58:50;;;;;;;14.20;9.95;;;;;;;4.98;72.71;93946.97;4128655;28;20051;-61
2023/01/21 08:00:51;;;;;;;13.60;8.73;;;;;;;5.11;72.05;93948.25;4145770;28;20510;-59
2023/01/21 08:02:54;;;;;;;9.75;6.18;;;;;;;5.25;71.12;93943.56;4145298;28;20054;-62
2023/01/21 08:04:55;;;;;;;10.65;5.80;;;;;;;5.51;70.80;93938.47;4145340;28;20108;-61
2023/01/21 08:06:57;;;;;;;8.93;5.20;;;;;;;5.72;69.21;93941.63;4141050;28;20081;-59
2023/01/21 08:08:59;;;;;;;7.65;5.00;;;;;;;5.80;68.71;93933.06;4139232;28;20122;-65
2023/01/21 08:11:01;;;;;;;10.77;6.03;;;;;;;5.87;68.51;93949.72;4140798;28;20180;-62
2023/01/21 08:13:02;;;;;;;9.82;5.70;;;;;;;6.07;68.87;93971.19;4131890;28;20092;-61
2023/01/21 08:15:04;;;;;;;9.18;5.32;;;;;;;6.21;68.05;93977.63;4145465;28;20081;-62
2023/01/21 08:17:06;;;;;;;10.10;5.22;;;;;;;6.38;67.74;93969.97;4145977;28;20046;-62
2023/01/21 08:19:08;;;;;;;7.30;5.30;;;;;;;6.51;66.45;93960.78;4145871;28;20058;-62
2023/01/21 08:21:10;;;;;;;8.40;5.18;;;;;;;6.50;66.09;93966.97;4144706;28;20049;-59
2023/01/21 08:23:12;;;;;;;8.05;4.80;;;;;;;6.64;66.27;93967.38;4146050;28;20443;-61
2023/01/21 08:27:34;;;;;;;8.30;4.30;;;;;;;6.40;65.54;93974.06;4145832;28;20117;-65
2023/01/21 08:29:35;;;;;;;9.00;4.47;;;;;;;6.62;66.23;93967.53;4140324;28;20043;-64
2023/01/21 08:31:37;;;;;;;7.95;4.65;;;;;;;6.41;65.90;93967.06;4139101;28;20412;-65
2023/01/21 08:33:39;;;;;;;19.10;10.75;;;;;;;6.57;65.78;93973.19;4133818;28;20057;-64
2023/01/21 08:35:41;;;;;;;10.18;5.13;;;;;;;6.71;64.97;93979.66;4129788;28;20050;-65
2023/01/21 08:37:43;;;;;;;7.22;4.90;;;;;;;6.95;64.47;93981.56;4136916;28;20108;-66
2023/01/21 08:39:44;;;;;;;8.45;6.18;;;;;;;7.00;64.57;93988.09;4137167;28;20047;-65
2023/01/21 08:41:46;;;;;;;9.05;6.13;;;;;;;7.04;64.62;93979.81;4128749;28;20058;-62
2023/01/21 08:43:48;;;;;;;6.32;4.43;;;;;;;6.85;63.75;93986.06;4133756;28;20546;-66
2023/01/21 08:45:49;;;;;;;7.05;4.43;;;;;;;6.87;64.13;93984.13;4139287;28;20046;-64
2023/01/21 08:47:51;;;;;;;9.02;5.72;;;;;;;6.95;64.69;93991.19;4140691;28;20135;-63
2023/01/21 08:49:53;;;;;;;8.93;5.40;;;;;;;6.97;64.50;93992.66;4132706;28;20108;-63
2023/01/21 08:51:55;;;;;;;10.55;5.47;;;;;;;7.05;64.23;93991.06;4146096;28;20038;-64
2023/01/21 08:53:56;;;;;;;7.13;5.22;;;;;;;6.95;63.96;93996.38;4138682;28;20089;-65
2023/01/21 08:55:59;;;;;;;13.50;5.45;;;;;;;7.08;64.33;93990.75;4141289;28;20833;-64
2023/01/21 08:58:01;;;;;;;16.10;11.13;;;;;;;7.44;64.35;93994.00;4144102;28;20053;-66
2023/01/21 09:00:03;;;;;;;8.88;4.68;;;;;;;7.72;62.57;93988.53;4145878;28;20093;-64
2023/01/21 09:02:07;;;;;;;8.48;4.38;;;;;;;7.87;62.06;93989.59;4145636;28;20083;-63
2023/01/21 09:04:09;;;;;;;5.35;3.83;;;;;;;8.13;62.45;93991.22;4145658;28;20073;-64
2023/01/21 09:06:11;;;;;;;8.18;4.53;;;;;;;8.17;61.29;93982.94;4143666;28;20054;-63
2023/01/21 09:08:12;;;;;;;6.28;4.03;;;;;;;8.19;61.42;93983.59;4130250;28;20054;-63
2023/01/21 09:10:59;;;;;;;10.60;4.22;;;;;;;8.32;60.45;93979.66;4133942;28;20478;-65
2023/01/21 09:12:39;;;;;;;4.93;3.70;;;;;;;8.51;62.30;93966.31;4144857;28;20436;-63
2023/01/21 09:14:41;;;;;;;8.00;3.45;;;;;;;8.67;60.79;93975.13;4143845;28;20088;-63
2023/01/21 09:16:43;;;;;;;5.53;2.85;;;;;;;8.63;59.69;93971.22;4145125;28;20539;-65
2023/01/21 09:18:46;;;;;;;3.67;2.42;;;;;;;8.51;59.02;93971.53;4145067;28;20057;-62
2023/01/21 09:20:48;;;;;;;4.93;2.50;;;;;;;8.53;59.39;93960.94;4144625;28;20042;-63
2023/01/21 09:22:49;;;;;;;4.55;2.42;;;;;;;8.56;59.60;93960.59;4145446;28;20133;-64
2023/01/21 09:24:51;;;;;;;5.63;2.60;;;;;;;8.81;59.26;93964.00;4146158;28;20128;-64
2023/01/21 09:26:54;;;;;;;3.72;2.30;;;;;;;8.54;59.36;93963.41;4145477;28;20096;-64
2023/01/21 09:28:57;;;;;;;4.55;2.35;;;;;;;8.53;59.79;93969.59;4145467;28;20119;-66
2023/01/21 09:31:02;;;;;;;4.45;2.50;;;;;;;8.77;59.82;93965.31;4145276;28;20050;-64
2023/01/21 09:33:03;;;;;;;3.80;2.58;;;;;;;8.94;59.38;93964.28;4145803;28;20465;-65
2023/01/21 09:35:05;;;;;;;5.82;2.40;;;;;;;8.91;58.70;93961.22;4145927;28;20058;-64
2023/01/21 09:37:08;;;;;;;3.90;2.88;;;;;;;8.80;59.14;93947.53;4148843;28;20566;-65
2023/01/21 09:39:09;;;;;;;6.28;2.60;;;;;;;8.94;58.63;93938.19;4148730;28;20132;-63
2023/01/21 09:41:28;;;;;;;4.88;2.88;;;;;;;8.93;58.71;93940.97;4148669;28;20046;-63
2023/01/21 09:43:39;;;;;;;5.72;3.03;;;;;;;9.18;59.04;93936.47;4147522;28;20055;-65